Prairie City, OR

6:44 AM PDT on May 23, 2015 (GMT -0700)
SW Prairie City | | Change Station
CLOSE
Current Station
Personal Weather Station
Location: Prairie City, OR
Elevation: 3547 ft
Nearby Weather Stations

Elev 3547 ft 44.45 °N, 118.72 °W | Updated 4 minutes ago

Rain
Rain
50.5 °F
Feels Like 50.5 °F
N
4.0
Wind Variable Wind from West
Gusts 8.0 mph

Today
High -- | Low -- °F
--% Chance of Precip.
Yesterday
High -- | Low -- °F
Precip. -- in
5:19 AM 8:24 PM
Waxing Crescent, 30% visible
Pressure 30.02 in
Visibility 7.0 miles
Clouds Overcast 300 ft
Dew Point 50 °F
Humidity 99%
Rainfall 0.24 in
Snow Depth Not available.
UV 0 out of 12
Pollen 6.60 out of 12
Air Quality Not available.
Flu Activity No Activity
METAR KGCD 231335Z AUTO 27007KT 7SM -RA OVC003 10/10 A3002 RMK AO2 T01000095

More Conditions Fewer Conditions

Pressure 30.02 in
Visibility 7.0 miles
Clouds Overcast 300 ft
Dew Point 50 °F
Humidity 99%
Rainfall 0.24 in
Snow Depth Not available.
UV 0 out of 12
Pollen 6.60 out of 12
Air Quality Not available.
Flu Activity No Activity
METAR KGCD 231335Z AUTO 27007KT 7SM -RA OVC003 10/10 A3002 RMK AO2 T01000095

More Conditions Fewer Conditions

10-Day Weather Forecast

Almanac

Astronomy

May. 23, 2015 Rise Set
Actual Time
Civil Twilight
Nautical Twilight
Astronomical Twilight
Moon
Length of Visible Light
Length of Day
Tomorrow will be .
, % of the Moon is Illuminated

Today's Extremes

State Highs State Lows

Community

WunderPhotos

Upload Photos

1,823,467 photos uploaded!

WunderBlogs® & News

Nearby

Air Quality

  Air Quality AQ Index Pollutant
Not available.

Snow Depth

Station Depth Elevation

Earthquake Activity

City Distance Mag. Time & Date
Minimum magnitude displayed is 2.5.

Coastal Water Temperatures

Place Temperature

Stations

Nearby Weather Stations

Station Location Temp. Windchill Dew Point Humidity Wind Precip. Elev Updated Type